Hovedside
METAR-TAF:

METAR-TAF

Lufthavner :

Hammerfest lufthavn

Hammerfest, Norge

breddegrad: 70-40N, lengdegrad: 023-40E, høyde over havet: 8 m

Gjeldene værobservasjon

Denne rapporten ble laget for 44 minutter siden, klokken 16:50 UTC
Vind 3 kt fra skiftende retning
Temperatur 2°C
Luftfuktighet 64%
Trykk 1006 hPa
Sikt 10 km eller mer
Spredte skyer i en høyde av 2800 ft
Brutte skyer i en høyde av 5000 ft

METAR: ENHF 181650Z VRB03KT 9999 SCT028 BKN050 02/M04 Q1006 RMK WIND 1254FT 32013KT

Tid: 19:34 (17:34 UTC)

Varsel

Denne rapporten ble laget for 3 timer og 34 minutter siden, klokken 14:00 UTC
Varsel gyldig fra 18. klokken 15 UTC til 18. klokken 24 UTC
Vind 8 kt fra Nord
Sikt 10 km eller mer
Få skyer i en høyde av 1000 ft, Bygeskyer.
Brutte skyer i en høyde av 3000 ft
Midlertidig
fra 18. klokken 15 UTC til 18. klokken 24 UTC
Sikt: 2500 m
i en høyde av 800 ft
snøbyger, regn, lett hagl eller graupel

TAF: ENHF 181400Z 1815/1824 35008KT 9999 FEW010CB BKN030 TEMPO 1815/1824 2500 SHSNRAGS VV008

Værobservasjoner og værvarsel for over 4000 flyplasser (METAR- og TAF-rapporter).

Tilgjengelige stasjoner er representert av de røde og gule prikkene på kartet.

Hold musepekeren over prikken for å se navnet på stasjonen.

Klikk så for å se værobservasjoner og -varsler.

For å forandre kartet kan du klikke på den grønne knappen med svart kryss for å zoome inn, på den grønne knappen med strek for å zoome ut, eller på de grønne pilene for å se tilstøtende kart.


METAR-TAF: